Time;durP1;ratioP1;P1;durP2;ratioP2;P2;SDS_P1;SDS_P2;PMS_P1;PMS_P2;Temp;Humidity;BMP_temperature;BMP_pressure;BME280_temperature;BME280_humidity;BME280_pressure;Samples;Min_cycle;Max_cycle;Signal;HPM_P1;HPM_P2
2023/07/16 00:00:51;;;;;;;2.17;0.93;;;;;;;25.09;50.73;100652.59;4959785;28;97703;-46
2023/07/16 00:03:17;;;;;;;1.20;0.80;;;;;;;25.11;50.65;100626.66;4958717;28;97277;-47
2023/07/16 00:05:42;;;;;;;2.30;1.20;;;;;;;25.07;50.80;100623.56;4960261;28;97272;-46
2023/07/16 00:08:07;;;;;;;1.00;0.80;;;;;;;25.03;51.22;100657.78;4959697;28;97194;-45
2023/07/16 00:10:35;;;;;;;3.00;1.10;;;;;;;25.00;51.11;100664.63;4958181;28;97364;-47
2023/07/16 00:13:01;;;;;;;1.30;0.90;;;;;;;24.95;51.23;100657.19;4959686;28;96930;-47
2023/07/16 00:15:26;;;;;;;1.43;0.97;;;;;;;24.90;51.46;100665.97;4958275;28;96770;-46
2023/07/16 00:17:52;;;;;;;1.67;0.93;;;;;;;24.87;51.46;100672.75;4959594;28;97145;-47
2023/07/16 00:20:18;;;;;;;1.53;1.20;;;;;;;24.85;51.50;100667.72;4959813;28;96971;-46
2023/07/16 00:22:43;;;;;;;1.10;1.00;;;;;;;24.85;51.22;100658.53;4960025;28;98406;-46
2023/07/16 00:25:08;;;;;;;1.10;1.00;;;;;;;24.83;51.10;100638.69;4958989;28;101852;-45
2023/07/16 00:27:34;;;;;;;2.90;1.30;;;;;;;24.77;51.32;100619.28;4959618;28;97136;-47
2023/07/16 00:29:59;;;;;;;1.53;1.03;;;;;;;24.72;51.50;100619.56;4958717;28;96930;-47
2023/07/16 00:32:24;;;;;;;1.03;0.90;;;;;;;24.68;51.48;100614.38;4957895;28;97429;-48
2023/07/16 00:34:50;;;;;;;1.57;0.87;;;;;;;24.66;51.79;100619.13;4958159;28;97254;-46
2023/07/16 00:37:15;;;;;;;2.13;0.90;;;;;;;24.62;51.90;100621.63;4956186;28;97182;-46
2023/07/16 00:39:41;;;;;;;1.80;1.17;;;;;;;24.61;51.75;100626.53;4958606;28;96795;-47
2023/07/16 00:42:06;;;;;;;3.73;1.67;;;;;;;24.54;51.76;100618.97;4957526;28;109505;-46
2023/07/16 00:44:31;;;;;;;1.27;1.17;;;;;;;24.52;51.98;100593.50;4958863;28;97713;-46
2023/07/16 00:46:57;;;;;;;1.33;1.00;;;;;;;24.53;51.52;100569.66;4958994;28;97151;-46
2023/07/16 00:49:24;;;;;;;2.10;1.10;;;;;;;24.49;51.51;100605.91;4961522;28;97496;-46
2023/07/16 00:51:50;;;;;;;0.83;0.80;;;;;;;24.41;52.08;100651.06;4962388;28;97148;-47
2023/07/16 00:54:16;;;;;;;0.87;0.73;;;;;;;24.36;52.34;100683.03;4959551;28;97338;-47
2023/07/16 00:56:41;;;;;;;0.87;0.87;;;;;;;24.34;52.37;100685.69;4962313;28;97233;-45
2023/07/16 00:59:07;;;;;;;2.23;1.00;;;;;;;24.36;52.29;100671.03;4961233;28;96487;-45
2023/07/16 01:01:32;;;;;;;1.27;0.90;;;;;;;24.39;52.47;100653.75;4961306;28;97515;-47
2023/07/16 01:03:58;;;;;;;0.87;0.73;;;;;;;24.35;52.25;100630.19;4962606;28;97237;-46
2023/07/16 01:06:39;;;;;;;1.30;0.80;;;;;;;24.33;52.96;100644.09;4960842;28;97116;-47
2023/07/16 01:09:12;;;;;;;1.00;0.73;;;;;;;24.30;52.85;100656.53;4962297;28;97198;-45
2023/07/16 01:11:40;;;;;;;1.40;1.30;;;;;;;24.30;52.82;100670.59;4961054;28;97938;-47
2023/07/16 01:14:06;;;;;;;1.77;1.30;;;;;;;24.30;52.73;100690.28;4961723;28;97151;-46
2023/07/16 01:16:32;;;;;;;1.73;0.90;;;;;;;24.31;52.60;100691.78;4961460;28;96923;-46
2023/07/16 01:18:58;;;;;;;1.10;1.00;;;;;;;24.31;52.79;100694.56;4963217;28;97288;-45
2023/07/16 01:21:23;;;;;;;3.20;1.10;;;;;;;24.29;52.99;100695.16;4960690;28;110666;-47
2023/07/16 01:23:51;;;;;;;1.73;1.07;;;;;;;24.31;53.10;100700.19;4961935;28;97122;-46
2023/07/16 01:26:43;;;;;;;1.67;1.33;;;;;;;24.28;53.50;100698.56;4961916;28;97219;-47
2023/07/16 01:29:17;;;;;;;5.60;1.30;;;;;;;24.21;53.19;100683.28;4961296;28;96985;-46
2023/07/16 01:31:44;;;;;;;1.10;0.97;;;;;;;24.16;53.10;100667.44;4957462;28;99484;-46
2023/07/16 01:34:11;;;;;;;1.90;1.30;;;;;;;24.16;53.15;100677.94;4962414;28;97054;-46
2023/07/16 01:36:38;;;;;;;0.80;0.67;;;;;;;24.09;53.26;100721.72;4961902;28;97064;-46
2023/07/16 01:39:03;;;;;;;1.60;1.27;;;;;;;24.07;53.30;100743.31;4961569;28;97016;-45
2023/07/16 01:41:29;;;;;;;1.83;0.80;;;;;;;24.03;54.06;100742.97;4962689;28;97054;-47
2023/07/16 01:43:54;;;;;;;1.10;0.80;;;;;;;23.90;53.90;100720.84;4957869;28;102819;-46
2023/07/16 01:46:20;;;;;;;2.83;0.90;;;;;;;23.78;54.47;100698.94;4959794;28;99244;-45
2023/07/16 01:48:45;;;;;;;1.77;1.03;;;;;;;23.72;54.51;100709.69;4961307;28;97221;-47
2023/07/16 01:51:13;;;;;;;1.30;1.10;;;;;;;23.66;54.85;100700.03;4960700;28;97363;-46
2023/07/16 01:53:39;;;;;;;3.43;1.27;;;;;;;23.60;54.89;100697.50;4960935;28;97041;-46
2023/07/16 01:56:05;;;;;;;0.80;0.80;;;;;;;23.55;55.07;100692.88;4962198;28;97159;-45
2023/07/16 01:58:30;;;;;;;1.97;1.20;;;;;;;23.48;55.37;100693.00;4960134;28;97393;-46
2023/07/16 02:00:56;;;;;;;2.67;0.83;;;;;;;23.44;55.59;100699.00;4961564;28;96986;-47
2023/07/16 02:03:21;;;;;;;3.30;1.10;;;;;;;23.40;55.63;100706.38;4961556;28;98039;-47
2023/07/16 02:05:47;;;;;;;1.20;0.90;;;;;;;23.38;55.86;100695.72;4960834;28;97082;-46
2023/07/16 02:08:13;;;;;;;1.87;1.27;;;;;;;23.35;56.07;100696.88;4960606;28;96801;-46
2023/07/16 02:10:38;;;;;;;1.00;0.90;;;;;;;23.32;56.02;100686.81;4961024;28;96829;-47
2023/07/16 02:13:03;;;;;;;1.83;0.97;;;;;;;23.30;56.04;100672.59;4959790;28;98325;-45
2023/07/16 02:15:29;;;;;;;2.27;1.30;;;;;;;23.27;55.96;100670.94;4963380;28;96956;-46
2023/07/16 02:17:54;;;;;;;2.73;1.17;;;;;;;23.21;56.28;100673.28;4960170;28;97164;-46
2023/07/16 02:20:19;;;;;;;2.00;1.17;;;;;;;23.21;56.55;100680.94;4959370;28;107030;-46
2023/07/16 02:22:45;;;;;;;2.47;1.27;;;;;;;23.17;56.70;100670.16;4959844;28;105933;-47
2023/07/16 02:25:10;;;;;;;2.37;1.40;;;;;;;23.17;56.54;100678.56;4961285;28;97300;-46
2023/07/16 02:27:36;;;;;;;1.33;0.90;;;;;;;23.14;56.89;100676.91;4960319;28;97187;-46
2023/07/16 02:30:01;;;;;;;2.00;1.30;;;;;;;23.12;56.82;100682.38;4961353;28;98126;-47
2023/07/16 02:32:27;;;;;;;1.33;1.07;;;;;;;23.07;57.06;100689.72;4960655;28;96883;-46
2023/07/16 02:34:52;;;;;;;1.13;1.03;;;;;;;23.04;57.20;100690.16;4961124;28;97493;-46
2023/07/16 02:37:17;;;;;;;1.80;1.27;;;;;;;23.04;56.90;100688.06;4960323;28;96765;-46
2023/07/16 02:39:45;;;;;;;1.53;1.27;;;;;;;23.01;57.00;100692.03;4961080;28;97155;-46
2023/07/16 02:42:10;;;;;;;3.50;1.30;;;;;;;22.99;57.18;100683.47;4960603;28;97413;-46
2023/07/16 02:44:41;;;;;;;1.53;1.33;;;;;;;22.96;57.29;100684.59;4961445;28;100077;-47
2023/07/16 02:47:07;;;;;;;1.83;1.00;;;;;;;22.92;57.44;100680.72;4961387;28;97220;-45
2023/07/16 02:49:32;;;;;;;1.30;1.20;;;;;;;22.91;57.62;100698.91;4959929;28;96895;-47
2023/07/16 02:51:58;;;;;;;3.30;1.53;;;;;;;22.91;57.80;100691.19;4960398;28;97641;-47
2023/07/16 02:54:23;;;;;;;2.73;1.30;;;;;;;22.94;57.63;100686.50;4958507;28;97248;-46
2023/07/16 02:56:48;;;;;;;1.53;1.37;;;;;;;22.93;57.75;100696.97;4960177;28;97229;-48
2023/07/16 02:59:14;;;;;;;1.23;1.13;;;;;;;22.94;57.81;100698.47;4958534;28;97358;-45
2023/07/16 03:01:39;;;;;;;1.60;1.50;;;;;;;22.91;57.78;100710.13;4959508;28;97282;-47
2023/07/16 03:04:04;;;;;;;1.17;1.10;;;;;;;22.89;57.78;100710.69;4959315;28;102876;-45
2023/07/16 03:06:30;;;;;;;1.30;1.20;;;;;;;22.88;57.94;100714.81;4953216;28;97501;-46
2023/07/16 03:08:55;;;;;;;1.47;1.10;;;;;;;22.88;58.06;100706.41;4959760;28;97001;-46
2023/07/16 03:11:21;;;;;;;1.60;1.47;;;;;;;22.88;58.06;100712.00;4957744;28;97175;-45
2023/07/16 03:13:46;;;;;;;1.27;1.17;;;;;;;22.87;58.02;100724.53;4959897;28;97070;-46
2023/07/16 03:16:11;;;;;;;0.90;0.80;;;;;;;22.85;58.20;100720.81;4958326;28;97053;-45
2023/07/16 03:18:37;;;;;;;1.07;0.97;;;;;;;22.87;57.98;100709.75;4961690;28;97371;-47
2023/07/16 03:21:02;;;;;;;1.30;1.20;;;;;;;22.84;57.97;100708.13;4958907;28;97161;-46
2023/07/16 03:23:27;;;;;;;1.50;1.30;;;;;;;22.81;58.17;100718.44;4958126;28;97039;-46
2023/07/16 03:25:53;;;;;;;1.93;1.43;;;;;;;22.78;58.22;100722.38;4959499;28;97191;-47
2023/07/16 03:28:18;;;;;;;2.17;1.50;;;;;;;22.78;58.32;100724.47;4958969;28;97326;-46
2023/07/16 03:30:50;;;;;;;1.53;1.43;;;;;;;22.77;58.89;100726.53;4957792;28;97049;-46
2023/07/16 03:33:16;;;;;;;2.20;1.10;;;;;;;22.73;58.49;100726.19;4958560;28;96996;-47
2023/07/16 03:35:48;;;;;;;1.70;1.20;;;;;;;22.71;58.82;100730.91;4959545;28;97916;-46
2023/07/16 03:38:14;;;;;;;1.20;1.10;;;;;;;22.67;58.63;100739.69;4958530;28;97952;-45
2023/07/16 03:40:42;;;;;;;1.40;1.23;;;;;;;22.68;58.75;100744.00;4957941;28;97624;-47
2023/07/16 03:43:07;;;;;;;2.40;1.23;;;;;;;22.67;58.71;100736.16;4958500;28;97126;-45
2023/07/16 03:45:33;;;;;;;1.83;1.73;;;;;;;22.67;58.87;100748.13;4958170;28;97199;-47
2023/07/16 03:47:58;;;;;;;2.30;1.50;;;;;;;22.67;58.63;100750.91;4959282;28;98635;-46
2023/07/16 03:50:24;;;;;;;1.63;1.53;;;;;;;22.66;58.89;100751.50;4957684;28;97239;-47
2023/07/16 03:52:49;;;;;;;1.47;1.37;;;;;;;22.65;58.70;100750.03;4958548;28;96777;-46
2023/07/16 03:55:14;;;;;;;1.77;1.33;;;;;;;22.59;58.96;100753.06;4959286;28;96870;-46
2023/07/16 03:57:40;;;;;;;1.20;1.10;;;;;;;22.58;59.00;100762.78;4957540;28;96925;-45
2023/07/16 04:00:09;;;;;;;1.23;1.13;;;;;;;22.55;59.14;100758.31;4958114;28;97422;-45
2023/07/16 04:02:34;;;;;;;2.83;1.70;;;;;;;22.53;59.10;100765.78;4957948;28;97458;-47
2023/07/16 04:05:00;;;;;;;1.30;1.20;;;;;;;22.54;59.09;100761.69;4957026;28;97170;-46
2023/07/16 04:07:25;;;;;;;2.13;1.20;;;;;;;22.56;59.14;100770.28;4957082;28;97360;-47
2023/07/16 04:09:51;;;;;;;1.53;1.20;;;;;;;22.58;59.11;100767.63;4958484;28;97144;-45
2023/07/16 04:12:17;;;;;;;2.70;1.67;;;;;;;22.61;59.02;100777.72;4958830;28;97080;-47
2023/07/16 04:14:42;;;;;;;1.73;1.20;;;;;;;22.61;58.88;100769.31;4958962;28;97010;-45
2023/07/16 04:17:08;;;;;;;1.93;1.27;;;;;;;22.61;59.16;100784.06;4960564;28;98952;-45
2023/07/16 04:19:33;;;;;;;2.20;1.20;;;;;;;22.59;59.10;100778.28;4956568;28;98563;-47
2023/07/16 04:21:59;;;;;;;1.50;1.40;;;;;;;22.58;59.31;100790.81;4962739;28;96815;-46
2023/07/16 04:24:26;;;;;;;1.03;0.97;;;;;;;22.57;59.37;100794.19;4962975;28;97101;-46
2023/07/16 04:26:52;;;;;;;3.13;1.40;;;;;;;22.57;59.37;100803.34;4963670;28;97830;-46
2023/07/16 04:29:18;;;;;;;1.30;1.20;;;;;;;22.56;59.37;100795.50;4962813;28;97112;-47
2023/07/16 04:31:43;;;;;;;2.30;1.23;;;;;;;22.53;59.52;100799.44;4963579;28;97112;-46
2023/07/16 04:34:08;;;;;;;1.23;1.10;;;;;;;22.54;59.63;100796.06;4962818;28;97808;-45
2023/07/16 04:36:33;;;;;;;1.50;1.40;;;;;;;22.57;59.47;100806.16;4963098;28;97161;-47
2023/07/16 04:38:59;;;;;;;2.40;1.40;;;;;;;22.58;59.57;100807.66;4962501;28;105306;-47
2023/07/16 04:41:24;;;;;;;1.53;1.43;;;;;;;22.59;59.50;100816.78;4963127;28;97174;-47
2023/07/16 04:43:49;;;;;;;1.37;1.20;;;;;;;22.57;59.43;100811.75;4963074;28;99952;-46
2023/07/16 04:46:16;;;;;;;1.80;1.70;;;;;;;22.57;59.51;100816.63;4961131;28;98905;-47
2023/07/16 04:48:42;;;;;;;3.87;1.40;;;;;;;22.55;59.52;100813.63;4961773;28;97332;-46
2023/07/16 04:51:07;;;;;;;1.30;1.17;;;;;;;22.56;59.62;100826.34;4963210;28;97241;-46
2023/07/16 04:53:32;;;;;;;1.40;1.30;;;;;;;22.55;59.85;100822.06;4963686;28;96680;-46
2023/07/16 04:55:58;;;;;;;2.10;1.43;;;;;;;22.58;60.04;100834.94;4963974;28;102230;-47
2023/07/16 04:58:23;;;;;;;1.90;1.20;;;;;;;22.59;59.73;100830.81;4962393;28;97212;-47
2023/07/16 05:00:49;;;;;;;1.30;1.20;;;;;;;22.60;59.74;100838.69;4963206;28;97231;-45
2023/07/16 05:03:14;;;;;;;2.20;1.40;;;;;;;22.61;59.88;100842.97;4961310;28;97459;-46
2023/07/16 05:05:39;;;;;;;1.40;1.30;;;;;;;22.63;59.76;100843.13;4961422;28;108647;-46
2023/07/16 05:08:05;;;;;;;1.30;1.17;;;;;;;22.65;60.02;100845.41;4962584;28;96988;-45
2023/07/16 05:10:30;;;;;;;1.73;1.40;;;;;;;22.67;59.87;100849.09;4963177;28;97312;-47
2023/07/16 05:12:55;;;;;;;1.50;1.40;;;;;;;22.69;59.95;100856.94;4962587;28;96843;-47
2023/07/16 05:15:21;;;;;;;2.80;1.40;;;;;;;22.71;60.05;100859.94;4962819;28;98519;-46
2023/07/16 05:17:46;;;;;;;1.57;1.47;;;;;;;22.72;60.09;100855.78;4961753;28;98100;-47
2023/07/16 05:20:12;;;;;;;1.70;1.60;;;;;;;22.69;59.98;100863.31;4962730;28;98638;-47
2023/07/16 05:22:37;;;;;;;1.77;1.57;;;;;;;22.68;60.00;100861.81;4962906;28;97399;-45
2023/07/16 05:25:03;;;;;;;2.40;1.43;;;;;;;22.67;60.05;100865.19;4962692;28;107589;-46
2023/07/16 05:27:28;;;;;;;1.87;1.60;;;;;;;22.69;60.02;100857.72;4960977;28;96942;-45
2023/07/16 05:29:54;;;;;;;1.80;1.67;;;;;;;22.71;60.13;100860.69;4961853;28;97220;-45
2023/07/16 05:32:21;;;;;;;2.30;1.77;;;;;;;22.74;59.92;100862.31;4962149;28;97082;-46
2023/07/16 05:34:46;;;;;;;1.53;1.43;;;;;;;22.79;59.87;100860.59;4961529;28;98141;-47
2023/07/16 05:37:11;;;;;;;1.57;1.37;;;;;;;22.81;59.83;100874.81;4962241;28;102452;-45
2023/07/16 05:39:37;;;;;;;2.87;1.87;;;;;;;22.80;59.93;100862.09;4963309;28;97362;-47
2023/07/16 05:42:03;;;;;;;2.20;1.90;;;;;;;22.85;59.84;100869.53;4961640;28;96651;-45
2023/07/16 05:44:29;;;;;;;1.97;1.77;;;;;;;22.89;59.81;100869.91;4961878;28;97157;-47
2023/07/16 05:46:54;;;;;;;2.23;2.03;;;;;;;22.91;59.88;100875.69;4963003;28;97751;-46
2023/07/16 05:49:19;;;;;;;3.37;2.13;;;;;;;22.94;59.84;100874.50;4960865;28;97107;-46
2023/07/16 05:51:45;;;;;;;1.83;1.37;;;;;;;23.01;59.54;100876.50;4961282;28;96956;-46
2023/07/16 05:54:10;;;;;;;1.73;1.63;;;;;;;23.03;59.60;100880.25;4961623;28;98082;-45
2023/07/16 05:56:36;;;;;;;1.70;1.60;;;;;;;23.06;59.36;100881.16;4962705;28;97098;-45
2023/07/16 05:59:01;;;;;;;2.20;1.97;;;;;;;23.09;59.48;100885.59;4961785;28;97102;-47
2023/07/16 06:01:26;;;;;;;2.83;2.60;;;;;;;23.13;59.00;100891.56;4961910;28;97249;-45
2023/07/16 06:03:52;;;;;;;5.53;1.90;;;;;;;23.20;58.92;100887.94;4962097;28;97767;-46
2023/07/16 06:06:17;;;;;;;2.80;2.60;;;;;;;23.21;58.72;100897.88;4961303;28;98551;-47
2023/07/16 06:08:42;;;;;;;2.57;2.37;;;;;;;23.21;58.48;100891.50;4962448;28;97100;-46
2023/07/16 06:11:08;;;;;;;2.63;2.37;;;;;;;23.18;58.73;100896.19;4961870;28;97162;-45
2023/07/16 06:13:34;;;;;;;2.60;2.40;;;;;;;23.22;58.34;100890.91;4963028;28;97718;-46
2023/07/16 06:15:59;;;;;;;2.57;2.23;;;;;;;23.25;58.43;100898.19;4961607;28;98068;-46
2023/07/16 06:18:24;;;;;;;2.87;2.60;;;;;;;23.29;58.16;100897.78;4961674;28;97050;-47
2023/07/16 06:20:51;;;;;;;2.60;2.40;;;;;;;23.33;58.06;100906.56;4962853;28;97085;-46
2023/07/16 06:23:17;;;;;;;3.13;2.57;;;;;;;23.34;58.03;100897.59;4961405;28;98573;-46
2023/07/16 06:25:44;;;;;;;3.30;2.53;;;;;;;23.36;57.59;100899.81;4962762;28;97247;-45
2023/07/16 06:28:10;;;;;;;2.40;2.20;;;;;;;23.41;57.43;100896.03;4962179;28;96876;-45
2023/07/16 06:30:35;;;;;;;5.27;2.43;;;;;;;23.40;57.42;100900.13;4962786;28;97090;-47
2023/07/16 06:33:01;;;;;;;2.47;2.13;;;;;;;23.43;57.61;100902.56;4962235;28;98997;-46
2023/07/16 06:35:26;;;;;;;2.37;2.17;;;;;;;23.40;57.47;100902.94;4961949;28;96866;-45
2023/07/16 06:37:51;;;;;;;3.30;2.20;;;;;;;23.41;57.37;100904.44;4962177;28;97178;-47
2023/07/16 06:40:17;;;;;;;2.13;1.93;;;;;;;23.42;57.05;100917.16;4960767;28;97142;-47
2023/07/16 06:42:42;;;;;;;2.40;1.87;;;;;;;23.41;56.76;100913.63;4961410;28;97410;-46
2023/07/16 06:45:08;;;;;;;2.00;1.63;;;;;;;23.42;56.70;100917.91;4957330;28;97258;-46
2023/07/16 06:47:33;;;;;;;3.33;1.90;;;;;;;23.40;56.78;100919.78;4961957;28;96876;-46
2023/07/16 06:49:59;;;;;;;1.87;1.73;;;;;;;23.43;56.66;100925.03;4961920;28;97035;-46
2023/07/16 06:52:27;;;;;;;2.87;1.93;;;;;;;23.44;56.66;100923.69;4961692;28;96929;-46
2023/07/16 06:54:53;;;;;;;5.67;2.00;;;;;;;23.49;56.79;100931.13;4961266;28;97286;-45
2023/07/16 06:57:18;;;;;;;2.40;1.67;;;;;;;23.51;56.32;100927.75;4961919;28;97336;-46
2023/07/16 06:59:44;;;;;;;2.00;1.80;;;;;;;23.56;56.17;100935.19;4959937;28;97524;-47
2023/07/16 07:02:10;;;;;;;2.50;1.77;;;;;;;23.56;56.09;100941.56;4961667;28;97231;-45
2023/07/16 07:04:35;;;;;;;2.10;2.00;;;;;;;23.53;55.70;100939.91;4960360;28;106535;-44
2023/07/16 07:07:00;;;;;;;3.23;1.83;;;;;;;23.51;55.92;100936.16;4961615;28;97132;-47
2023/07/16 07:09:25;;;;;;;2.33;1.80;;;;;;;23.52;55.65;100938.41;4961834;28;97406;-46
2023/07/16 07:11:51;;;;;;;2.60;2.10;;;;;;;23.54;55.76;100940.66;4962263;28;102106;-46
2023/07/16 07:14:16;;;;;;;2.03;1.80;;;;;;;23.52;55.55;100948.91;4961809;28;97462;-47
2023/07/16 07:16:41;;;;;;;4.90;1.50;;;;;;;23.52;55.52;100943.28;4961611;28;97215;-45
2023/07/16 07:19:08;;;;;;;1.73;1.10;;;;;;;23.53;55.29;100948.31;4961242;28;97061;-45
2023/07/16 07:21:33;;;;;;;2.50;1.47;;;;;;;23.53;55.47;100948.31;4960068;28;97329;-47
2023/07/16 07:23:58;;;;;;;2.23;1.30;;;;;;;23.53;55.31;100953.94;4961920;28;97539;-46
2023/07/16 07:26:24;;;;;;;1.80;1.70;;;;;;;23.52;55.19;100954.53;4961399;28;99112;-45
2023/07/16 07:28:50;;;;;;;4.57;1.63;;;;;;;23.54;55.17;100955.44;4960102;28;97205;-47
2023/07/16 07:31:16;;;;;;;2.07;1.27;;;;;;;23.60;54.97;100958.00;4960766;28;96730;-46
2023/07/16 07:33:41;;;;;;;3.17;1.33;;;;;;;23.65;54.68;100943.72;4963212;28;97604;-47
2023/07/16 07:36:06;;;;;;;1.37;1.03;;;;;;;23.68;54.22;100948.16;4961900;28;97230;-45
2023/07/16 07:38:32;;;;;;;1.80;1.37;;;;;;;23.78;54.29;100953.88;4962536;28;97007;-46
2023/07/16 07:40:57;;;;;;;1.23;1.13;;;;;;;23.87;53.91;100946.88;4960829;28;98196;-47
2023/07/16 07:43:22;;;;;;;3.23;1.30;;;;;;;23.88;53.44;100945.53;4960052;28;97208;-46
2023/07/16 07:45:47;;;;;;;2.80;1.70;;;;;;;23.88;53.12;100962.38;4961366;28;98693;-46
2023/07/16 07:48:13;;;;;;;2.20;1.40;;;;;;;23.85;53.25;100942.56;4960385;28;97125;-46
2023/07/16 07:50:38;;;;;;;2.10;1.53;;;;;;;23.82;52.65;100954.97;4958890;28;105802;-46
2023/07/16 07:53:05;;;;;;;3.30;1.70;;;;;;;23.79;52.48;100944.88;4950119;28;97147;-46
2023/07/16 07:55:30;;;;;;;1.50;1.40;;;;;;;23.85;52.22;100953.78;4953752;28;96825;-46
2023/07/16 07:57:55;;;;;;;5.40;1.60;;;;;;;23.90;51.66;100959.75;4957550;28;97392;-46
2023/07/16 08:00:21;;;;;;;3.50;1.60;;;;;;;23.95;51.22;100964.38;4959140;28;99187;-47
2023/07/16 08:02:47;;;;;;;3.20;1.47;;;;;;;24.02;50.68;100952.31;4956096;28;96863;-45
2023/07/16 08:05:12;;;;;;;2.43;1.83;;;;;;;24.11;50.62;100965.72;4958929;28;97134;-47
2023/07/16 08:07:37;;;;;;;2.90;1.53;;;;;;;24.27;50.02;100964.22;4960756;28;97123;-46
2023/07/16 08:10:03;;;;;;;1.70;1.60;;;;;;;24.43;49.38;100962.69;4958946;28;101059;-47
2023/07/16 08:12:29;;;;;;;7.27;2.43;;;;;;;24.61;49.25;100975.41;4958402;28;97858;-46
2023/07/16 08:14:55;;;;;;;2.10;1.73;;;;;;;24.72;48.74;100977.69;4960057;28;96751;-47
2023/07/16 08:17:20;;;;;;;1.57;1.40;;;;;;;24.75;48.00;100984.25;4960992;28;96789;-45
2023/07/16 08:19:45;;;;;;;2.17;1.77;;;;;;;24.82;47.92;100986.94;4959524;28;108489;-46
2023/07/16 08:22:11;;;;;;;2.33;2.13;;;;;;;24.89;47.58;100991.00;4960445;28;97301;-46
2023/07/16 08:24:37;;;;;;;3.57;2.23;;;;;;;24.90;47.20;100979.13;4962267;28;96981;-46
2023/07/16 08:27:02;;;;;;;1.90;1.80;;;;;;;25.05;46.99;100978.91;4961860;28;97233;-47
2023/07/16 08:29:27;;;;;;;2.47;2.27;;;;;;;25.18;47.14;100998.22;4959981;28;96845;-46
2023/07/16 08:31:53;;;;;;;2.50;2.13;;;;;;;25.27;46.41;100986.25;4960460;28;97727;-48
2023/07/16 08:34:19;;;;;;;2.67;2.23;;;;;;;25.36;46.31;100989.72;4961963;28;97056;-46
2023/07/16 08:36:44;;;;;;;4.40;2.73;;;;;;;25.50;44.31;100985.16;4961035;28;97401;-47
2023/07/16 08:39:09;;;;;;;3.30;2.70;;;;;;;25.47;44.82;101003.28;4958531;28;103111;-46
2023/07/16 08:41:35;;;;;;;4.27;2.30;;;;;;;25.38;44.76;100998.31;4961167;28;112171;-46
2023/07/16 08:44:01;;;;;;;2.70;2.40;;;;;;;25.29;44.90;101006.13;4959027;28;97402;-47
2023/07/16 08:46:26;;;;;;;2.30;2.10;;;;;;;25.27;44.82;100997.53;4961672;28;97143;-47
2023/07/16 08:48:53;;;;;;;2.37;2.17;;;;;;;25.40;44.72;101010.47;4961464;28;96850;-47
2023/07/16 08:51:21;;;;;;;2.90;2.20;;;;;;;25.45;44.48;100998.19;4961006;28;97807;-47
2023/07/16 08:53:47;;;;;;;3.13;2.33;;;;;;;25.56;44.09;100996.88;4959158;28;96795;-45
2023/07/16 08:56:12;;;;;;;3.03;2.00;;;;;;;25.67;43.64;100999.13;4960586;28;97209;-45
2023/07/16 08:58:39;;;;;;;2.63;2.30;;;;;;;25.80;43.70;101001.53;4957611;28;97854;-47
2023/07/16 09:01:05;;;;;;;2.03;1.80;;;;;;;25.96;43.24;100999.94;4960649;28;97025;-47
2023/07/16 09:03:30;;;;;;;1.90;1.73;;;;;;;26.04;43.21;100994.88;4961496;28;97016;-47
2023/07/16 09:05:56;;;;;;;3.30;2.13;;;;;;;26.18;43.10;101003.69;4958876;28;97068;-46
2023/07/16 09:08:21;;;;;;;2.17;2.00;;;;;;;26.31;42.88;100997.56;4961010;28;97560;-47
2023/07/16 09:10:57;;;;;;;4.20;1.90;;;;;;;26.38;41.42;101000.25;4963589;28;97704;-47
2023/07/16 09:13:27;;;;;;;7.33;2.40;;;;;;;26.47;42.38;100995.94;4962643;28;97254;-47
2023/07/16 09:15:57;;;;;;;5.27;2.50;;;;;;;26.53;41.51;101002.75;4962911;28;97159;-47
2023/07/16 09:18:25;;;;;;;2.23;2.00;;;;;;;26.59;42.09;101002.44;4963319;28;97475;-47
2023/07/16 09:20:58;;;;;;;2.83;1.93;;;;;;;26.59;40.50;100999.63;4963308;28;97254;-46
2023/07/16 09:23:25;;;;;;;4.07;2.00;;;;;;;26.59;41.60;101003.19;4964527;28;96999;-46
2023/07/16 09:25:51;;;;;;;2.93;2.00;;;;;;;26.61;41.88;101006.16;4962830;28;97130;-46
2023/07/16 09:28:18;;;;;;;2.43;2.10;;;;;;;26.67;41.37;101006.59;4964220;28;97366;-47
2023/07/16 09:30:44;;;;;;;2.33;2.13;;;;;;;26.69;41.13;101018.03;4962115;28;97178;-46
2023/07/16 09:33:12;;;;;;;3.10;2.20;;;;;;;26.68;40.86;101015.81;4962554;28;97796;-46
2023/07/16 09:35:37;;;;;;;3.53;2.50;;;;;;;26.49;40.70;101016.59;4962105;28;97517;-46
2023/07/16 09:38:03;;;;;;;2.20;1.70;;;;;;;26.36;40.95;101025.50;4958840;28;97459;-47
2023/07/16 09:40:29;;;;;;;2.40;1.67;;;;;;;26.36;40.95;101033.22;4963037;28;97631;-47
2023/07/16 09:42:55;;;;;;;2.23;1.63;;;;;;;26.57;40.81;101030.53;4963336;28;97108;-46
2023/07/16 09:45:20;;;;;;;2.37;1.77;;;;;;;26.76;40.42;101038.97;4964288;28;97249;-47
2023/07/16 09:47:46;;;;;;;2.20;2.10;;;;;;;26.95;39.94;101035.38;4964448;28;97346;-50
2023/07/16 09:50:12;;;;;;;3.17;2.20;;;;;;;27.13;39.70;101022.56;4960722;28;97289;-47
2023/07/16 09:52:39;;;;;;;6.07;2.47;;;;;;;27.21;39.39;101037.22;4962550;28;97476;-47
2023/07/16 09:55:07;;;;;;;2.97;2.43;;;;;;;27.23;39.11;101037.38;4961988;28;97361;-47
2023/07/16 09:57:39;;;;;;;2.40;2.20;;;;;;;27.32;38.76;101022.47;4964036;28;98148;-45
2023/07/16 10:00:16;;;;;;;2.00;1.90;;;;;;;27.42;37.69;101031.66;4962227;28;97452;-47
2023/07/16 10:02:42;;;;;;;1.80;1.70;;;;;;;27.42;38.66;101032.41;4962484;28;97247;-46
2023/07/16 10:05:25;;;;;;;4.10;1.90;;;;;;;27.46;37.72;101031.94;4962572;28;97371;-48
2023/07/16 10:07:53;;;;;;;1.83;1.70;;;;;;;27.58;39.02;101024.28;4960131;28;97540;-46
2023/07/16 10:10:19;;;;;;;2.80;1.57;;;;;;;27.78;38.87;101031.31;4961526;28;97261;-46
2023/07/16 10:13:01;;;;;;;2.20;1.93;;;;;;;27.92;36.10;101029.41;4962506;28;97088;-48
2023/07/16 10:15:28;;;;;;;2.80;2.07;;;;;;;27.85;38.22;101036.00;4962872;28;97238;-48
2023/07/16 10:17:55;;;;;;;5.33;1.93;;;;;;;27.73;38.47;101034.47;4961004;28;97052;-46
2023/07/16 10:20:36;;;;;;;3.60;1.70;;;;;;;27.74;36.87;101033.13;4961290;28;97257;-47
2023/07/16 10:23:16;;;;;;;3.10;2.20;;;;;;;27.79;37.79;101024.31;4961124;28;97189;-47
2023/07/16 10:26:00;;;;;;;1.60;1.43;;;;;;;27.82;35.19;101031.59;4961255;28;97203;-47
2023/07/16 10:28:26;;;;;;;6.50;2.17;;;;;;;27.86;38.18;101037.50;4960928;28;96728;-47
2023/07/16 10:30:52;;;;;;;2.50;2.30;;;;;;;27.88;37.96;101028.41;4961947;28;96766;-46
2023/07/16 10:33:17;;;;;;;1.73;1.50;;;;;;;27.97;38.15;101034.03;4963567;28;96999;-46
2023/07/16 10:35:45;;;;;;;1.97;1.77;;;;;;;28.03;37.85;101025.94;4961423;28;96858;-46
2023/07/16 10:38:10;;;;;;;2.00;1.90;;;;;;;27.93;38.04;101035.81;4961596;28;97191;-47
2023/07/16 10:40:43;;;;;;;3.33;2.10;;;;;;;27.97;36.88;101051.00;4961202;28;97217;-52
2023/07/16 10:43:09;;;;;;;1.67;1.57;;;;;;;27.95;37.79;101044.44;4958056;28;97422;-46
2023/07/16 10:45:35;;;;;;;2.70;2.03;;;;;;;28.01;37.44;101053.34;4959994;28;97289;-47
2023/07/16 10:48:00;;;;;;;2.80;1.70;;;;;;;27.99;37.40;101044.75;4961357;28;96982;-45
2023/07/16 10:50:25;;;;;;;2.47;2.00;;;;;;;28.07;37.04;101060.16;4961276;28;97286;-46
2023/07/16 10:52:55;;;;;;;5.70;1.53;;;;;;;28.01;37.02;101059.75;4961974;28;96926;-47
2023/07/16 10:55:22;;;;;;;1.90;1.50;;;;;;;28.02;37.30;101049.19;4962920;28;97184;-46
2023/07/16 10:57:51;;;;;;;1.87;1.77;;;;;;;28.22;37.43;101061.84;4961329;28;97028;-47
2023/07/16 11:00:17;;;;;;;1.90;1.63;;;;;;;28.30;36.90;101064.47;4960596;28;97209;-47
2023/07/16 11:02:43;;;;;;;2.50;2.07;;;;;;;28.37;36.90;101064.28;4962924;28;96749;-45
2023/07/16 11:05:16;;;;;;;3.00;2.20;;;;;;;28.43;35.46;101055.41;4964117;28;96872;-46
2023/07/16 11:07:46;;;;;;;2.70;1.93;;;;;;;28.27;36.08;101057.94;4962469;28;97365;-47
2023/07/16 11:10:14;;;;;;;2.20;1.77;;;;;;;28.08;36.41;101053.16;4960674;28;97098;-47
2023/07/16 11:12:41;;;;;;;2.03;1.80;;;;;;;28.03;36.90;101065.56;4961078;28;96695;-47
2023/07/16 11:15:08;;;;;;;2.70;2.00;;;;;;;28.15;36.56;101052.19;4962173;28;97047;-46
2023/07/16 11:17:33;;;;;;;2.07;1.93;;;;;;;28.23;36.45;101059.75;4961159;28;97193;-45
2023/07/16 11:20:00;;;;;;;2.47;1.90;;;;;;;28.18;36.44;101065.16;4961636;28;97796;-47